Terminal Aerodrome Forecast
Issued by NWS

Current Version | Previous Version | Text Only | Print | Product List | Glossary On
Versions: 1 2 3 4 5 6 7 8 9 10 11 12 13 14 15
614
FTUS42 KFFC 262330
TAFFTY
TAF
KFTY 262330Z 2700/2724 34010KT P6SM VCSH SCT060 BKN250
     FM270200 18003KT P6SM SCT050 SCT120
     FM270500 00000KT P6SM SCT015 BKN100
     FM271000 27003KT P6SM BKN025 BKN100
     FM271500 28007KT P6SM VCSH SCT035 BKN120 PROB30 2717/2721 5SM
      -TSRA OVC025CB
     FM272200 30005KT P6SM SCT100=

USA.gov is the U.S. government's official web portal to all federal, state and local government web resources and services.